FRS111N EDSB-EDDS
Flight info
| Callsign | FRS111N |
|---|---|
| Flight time | N/A |
| Altitude | 2000 |
| Route | EDSB/03 |
| Aircraft | TBM) |
Departure
| Time | 2026-04-30 20:03 |
|---|---|
| Airport | Karlsruhe Baden-Baden Airport (EDSB) |
Arrival
| Time | N/A |
|---|---|
| Airport | Stuttgart Airport (EDDS) |
| Time | Latitude | Longitude | Altitude | Speed | Heading |
|---|---|---|---|---|---|
| 2026-04-30 19:58 | 48.76914 | 8.07821 | 411 ft | 0 kts | 296° |
| 2026-04-30 19:58 | 48.76916 | 8.07815 | 408 ft | 6 kts | 295° |
| 2026-04-30 19:58 | 48.76898 | 8.07721 | 411 ft | 12 kts | 226° |
| 2026-04-30 19:59 | 48.76887 | 8.07605 | 411 ft | 13 kts | 279° |
| 2026-04-30 19:59 | 48.76893 | 8.07455 | 408 ft | 10 kts | 252° |
| 2026-04-30 19:59 | 48.76853 | 8.07330 | 411 ft | 0 kts | 213° |
| 2026-04-30 20:00 | 48.76825 | 8.07306 | 410 ft | 16 kts | 210° |
| 2026-04-30 20:00 | 48.76724 | 8.07185 | 411 ft | 17 kts | 262° |
| 2026-04-30 20:00 | 48.76790 | 8.07015 | 410 ft | 22 kts | 330° |
| 2026-04-30 20:01 | 48.76842 | 8.07025 | 410 ft | 0 kts | 30° |
| 2026-04-30 20:02 | 48.76853 | 8.07034 | 410 ft | 13 kts | 26° |
| 2026-04-30 20:02 | 48.77105 | 8.07270 | 410 ft | 71 kts | 33° |
| 2026-04-30 20:03 | 48.78390 | 8.08449 | 795 ft | 126 kts | 36° |
| 2026-04-30 20:03 | 48.79117 | 8.09175 | 1314 ft | 129 kts | 33° |
| 2026-04-30 20:03 | 48.79862 | 8.10003 | 1803 ft | 127 kts | 45° |
| 2026-04-30 20:03 | 48.80479 | 8.10937 | 2113 ft | 124 kts | 77° |
| 2026-04-30 20:04 | 48.80299 | 8.12079 | 2396 ft | 120 kts | 133° |
| 2026-04-30 20:04 | 48.79447 | 8.12595 | 2409 ft | 144 kts | 159° |
| 2026-04-30 20:04 | 48.78434 | 8.12968 | 2397 ft | 154 kts | 158° |
| 2026-04-30 20:05 | 48.76434 | 8.14344 | 2408 ft | 163 kts | 147° |
| 2026-04-30 20:05 | 48.75489 | 8.15322 | 2409 ft | 167 kts | 136° |
| 2026-04-30 20:05 | 48.73624 | 8.17536 | 2406 ft | 174 kts | 137° |
| 2026-04-30 20:06 | 48.72963 | 8.19014 | 2460 ft | 170 kts | 101° |
| 2026-04-30 20:06 | 48.73205 | 8.20665 | 2937 ft | 159 kts | 69° |
| 2026-04-30 20:06 | 48.73749 | 8.22095 | 3327 ft | 158 kts | 65° |
| 2026-04-30 20:06 | 48.74168 | 8.23573 | 3773 ft | 151 kts | 86° |
| 2026-04-30 20:07 | 48.74238 | 8.25172 | 4020 ft | 153 kts | 90° |
| 2026-04-30 20:07 | 48.74285 | 8.26811 | 4282 ft | 159 kts | 91° |
| 2026-04-30 20:07 | 48.74366 | 8.30176 | 5056 ft | 161 kts | 91° |
| 2026-04-30 20:08 | 48.74425 | 8.31900 | 5205 ft | 173 kts | 90° |
| 2026-04-30 20:08 | 48.74462 | 8.33853 | 5265 ft | 194 kts | 91° |
| 2026-04-30 20:08 | 48.74508 | 8.35822 | 5945 ft | 176 kts | 89° |
| 2026-04-30 20:08 | 48.74541 | 8.37631 | 6497 ft | 172 kts | 90° |
| 2026-04-30 20:09 | 48.74557 | 8.39452 | 6879 ft | 173 kts | 90° |
| 2026-04-30 20:09 | 48.74566 | 8.41291 | 7133 ft | 178 kts | 91° |
| 2026-04-30 20:09 | 48.74573 | 8.45263 | 7416 ft | 204 kts | 91° |
| 2026-04-30 20:10 | 48.74576 | 8.49727 | 7378 ft | 208 kts | 91° |
| 2026-04-30 20:10 | 48.74576 | 8.51940 | 6586 ft | 212 kts | 91° |
| 2026-04-30 20:10 | 48.74584 | 8.54033 | 6515 ft | 184 kts | 91° |
| 2026-04-30 20:11 | 48.74634 | 8.57204 | 6497 ft | 124 kts | 90° |
| 2026-04-30 20:11 | 48.74668 | 8.58454 | 6495 ft | 114 kts | 91° |
| 2026-04-30 20:11 | 48.74692 | 8.59629 | 6503 ft | 109 kts | 91° |
| 2026-04-30 20:12 | 48.74756 | 8.61948 | 6221 ft | 119 kts | 92° |
| 2026-04-30 20:12 | 48.74780 | 8.63328 | 5594 ft | 143 kts | 90° |
| 2026-04-30 20:12 | 48.74821 | 8.64943 | 4933 ft | 160 kts | 91° |
| 2026-04-30 20:13 | 48.74875 | 8.66593 | 4465 ft | 157 kts | 91° |
| 2026-04-30 20:13 | 48.74921 | 8.68241 | 4028 ft | 153 kts | 91° |
| 2026-04-30 20:13 | 48.74967 | 8.69873 | 3655 ft | 160 kts | 90° |
| 2026-04-30 20:13 | 48.75012 | 8.71518 | 3504 ft | 158 kts | 91° |
| 2026-04-30 20:14 | 48.75040 | 8.73193 | 3389 ft | 162 kts | 91° |
| 2026-04-30 20:14 | 48.74943 | 8.74900 | 3404 ft | 171 kts | 99° |
| 2026-04-30 20:14 | 48.74779 | 8.76790 | 3405 ft | 188 kts | 97° |
| 2026-04-30 20:14 | 48.74622 | 8.78829 | 3407 ft | 202 kts | 97° |
| 2026-04-30 20:15 | 48.74445 | 8.80992 | 3404 ft | 210 kts | 98° |
| 2026-04-30 20:15 | 48.74248 | 8.83204 | 3408 ft | 213 kts | 99° |
| 2026-04-30 20:15 | 48.74047 | 8.85441 | 3402 ft | 215 kts | 98° |
| 2026-04-30 20:15 | 48.73868 | 8.87695 | 3397 ft | 217 kts | 97° |
| 2026-04-30 20:16 | 48.73767 | 8.89978 | 3388 ft | 217 kts | 94° |
| 2026-04-30 20:16 | 48.73692 | 8.92268 | 3395 ft | 219 kts | 95° |
| 2026-04-30 20:16 | 48.73615 | 8.94576 | 3391 ft | 220 kts | 95° |
| 2026-04-30 20:16 | 48.73542 | 8.96890 | 3390 ft | 220 kts | 94° |
| 2026-04-30 20:17 | 48.73479 | 8.99201 | 3387 ft | 219 kts | 95° |
| 2026-04-30 20:17 | 48.73408 | 9.01498 | 3398 ft | 219 kts | 94° |
| 2026-04-30 20:17 | 48.73336 | 9.03756 | 3396 ft | 199 kts | 94° |
| 2026-04-30 20:17 | 48.73121 | 9.05661 | 3393 ft | 174 kts | 107° |
| 2026-04-30 20:18 | 48.72694 | 9.07367 | 3390 ft | 175 kts | 111° |
| 2026-04-30 20:18 | 48.71918 | 9.08466 | 3874 ft | 149 kts | 149° |
| 2026-04-30 20:18 | 48.70881 | 9.09030 | 3331 ft | 171 kts | 155° |
| 2026-04-30 20:18 | 48.69700 | 9.09602 | 3183 ft | 186 kts | 157° |
| 2026-04-30 20:19 | 48.68414 | 9.10199 | 3013 ft | 192 kts | 159° |
| 2026-04-30 20:19 | 48.67622 | 9.10576 | 2891 ft | 171 kts | 149° |
| 2026-04-30 20:19 | 48.67200 | 9.12450 | 2246 ft | 155 kts | 78° |
| 2026-04-30 20:19 | 48.67456 | 9.13972 | 2080 ft | 139 kts | 74° |
| 2026-04-30 20:20 | 48.67702 | 9.15263 | 1945 ft | 119 kts | 77° |
| 2026-04-30 20:20 | 48.67923 | 9.16432 | 1871 ft | 109 kts | 78° |
| 2026-04-30 20:20 | 48.68045 | 9.17158 | 1731 ft | 106 kts | 76° |
| 2026-04-30 20:20 | 48.68252 | 9.18243 | 1572 ft | 106 kts | 75° |
| 2026-04-30 20:21 | 48.68444 | 9.19289 | 1447 ft | 106 kts | 75° |
| 2026-04-30 20:21 | 48.68647 | 9.20386 | 1352 ft | 109 kts | 74° |
| 2026-04-30 20:21 | 48.68849 | 9.21403 | 1295 ft | 86 kts | 75° |
| 2026-04-30 20:21 | 48.68976 | 9.22133 | 1280 ft | 61 kts | 76° |
| 2026-04-30 20:22 | 48.69129 | 9.22943 | 1297 ft | 102 kts | 74° |
| 2026-04-30 20:22 | 48.69349 | 9.23910 | 1859 ft | 90 kts | 71° |
| 2026-04-30 20:22 | 48.69568 | 9.24927 | 2153 ft | 109 kts | 76° |
| 2026-04-30 20:22 | 48.69637 | 9.26070 | 2436 ft | 110 kts | 102° |
| 2026-04-30 20:23 | 48.69186 | 9.27058 | 2620 ft | 123 kts | 140° |
| 2026-04-30 20:23 | 48.68326 | 9.27764 | 2423 ft | 154 kts | 149° |
| 2026-04-30 20:23 | 48.67336 | 9.27835 | 2870 ft | 152 kts | 198° |
| 2026-04-30 20:23 | 48.66545 | 9.26541 | 2750 ft | 183 kts | 234° |
| 2026-04-30 20:24 | 48.65970 | 9.24704 | 2546 ft | 199 kts | 245° |
| 2026-04-30 20:24 | 48.65445 | 9.22731 | 2382 ft | 205 kts | 245° |
| 2026-04-30 20:24 | 48.64927 | 9.20741 | 2428 ft | 198 kts | 249° |
| 2026-04-30 20:24 | 48.64497 | 9.18737 | 2317 ft | 204 kts | 254° |
| 2026-04-30 20:25 | 48.65414 | 9.15533 | 2909 ft | 178 kts | 328° |
| 2026-04-30 20:25 | 48.66496 | 9.14494 | 2766 ft | 182 kts | 338° |
| 2026-04-30 20:26 | 48.67777 | 9.15460 | 2359 ft | 122 kts | 75° |
| 2026-04-30 20:26 | 48.68213 | 9.18047 | 1643 ft | 131 kts | 76° |
| 2026-04-30 20:26 | 48.68441 | 9.19328 | 1442 ft | 120 kts | 74° |
| 2026-04-30 20:27 | 48.68855 | 9.21502 | 1280 ft | 107 kts | 74° |
| 2026-04-30 20:27 | 48.69308 | 9.24220 | 1929 ft | 133 kts | 81° |
| 2026-04-30 20:28 | 48.68309 | 9.26008 | 2242 ft | 158 kts | 160° |
| 2026-04-30 20:28 | 48.66273 | 9.25751 | 2649 ft | 160 kts | 226° |
| 2026-04-30 20:29 | 48.64976 | 9.22595 | 2364 ft | 188 kts | 238° |
| 2026-04-30 20:30 | 48.63915 | 9.18528 | 2269 ft | 128 kts | 261° |
| 2026-04-30 20:30 | 48.63603 | 9.14727 | 2222 ft | 120 kts | 265° |
| 2026-04-30 20:31 | 48.65686 | 9.11751 | 2308 ft | 185 kts | 336° |
| 2026-04-30 20:32 | 48.67488 | 9.14026 | 1974 ft | 131 kts | 73° |
| 2026-04-30 20:32 | 48.67929 | 9.16563 | 1756 ft | 113 kts | 78° |
| 2026-04-30 20:33 | 48.68120 | 9.17659 | 1601 ft | 108 kts | 75° |
| 2026-04-30 20:33 | 48.68540 | 9.19839 | 1345 ft | 102 kts | 73° |
| 2026-04-30 20:33 | 48.68722 | 9.20794 | 1287 ft | 85 kts | 76° |
| 2026-04-30 20:34 | 48.69097 | 9.22821 | 1525 ft | 118 kts | 78° |
| 2026-04-30 20:34 | 48.69395 | 9.25105 | 2539 ft | 108 kts | 110° |
| 2026-04-30 20:35 | 48.68687 | 9.25854 | 2471 ft | 155 kts | 153° |
| 2026-04-30 20:35 | 48.67673 | 9.26691 | 2346 ft | 178 kts | 144° |
| 2026-04-30 20:35 | 48.65555 | 9.28954 | 2463 ft | 189 kts | 142° |
| 2026-04-30 20:36 | 48.64425 | 9.30113 | 2447 ft | 202 kts | 143° |
| 2026-04-30 20:36 | 48.63229 | 9.31287 | 2530 ft | 206 kts | 142° |
| 2026-04-30 20:36 | 48.60985 | 9.33817 | 3000 ft | 195 kts | 123° |
| 2026-04-30 20:37 | 48.60411 | 9.35753 | 2912 ft | 205 kts | 110° |
| 2026-04-30 20:37 | 48.60024 | 9.37813 | 2940 ft | 206 kts | 98° |
| 2026-04-30 20:37 | 48.60003 | 9.39992 | 2944 ft | 208 kts | 92° |
| 2026-04-30 20:37 | 48.60028 | 9.42171 | 2951 ft | 207 kts | 90° |
| 2026-04-30 20:38 | 48.60170 | 9.44350 | 2940 ft | 213 kts | 77° |
| 2026-04-30 20:38 | 48.60958 | 9.46270 | 2939 ft | 221 kts | 52° |
| 2026-04-30 20:38 | 48.62090 | 9.47872 | 2946 ft | 224 kts | 48° |
| 2026-04-30 20:39 | 48.64421 | 9.51003 | 2942 ft | 224 kts | 47° |
| 2026-04-30 20:39 | 48.65575 | 9.52551 | 3181 ft | 214 kts | 48° |
| 2026-04-30 20:39 | 48.66651 | 9.53912 | 3894 ft | 189 kts | 46° |
| 2026-04-30 20:40 | 48.68448 | 9.56037 | 5521 ft | 142 kts | 46° |
| 2026-04-30 20:40 | 48.69218 | 9.56984 | 5986 ft | 145 kts | 46° |
| 2026-04-30 20:40 | 48.69995 | 9.57968 | 6447 ft | 146 kts | 46° |
| 2026-04-30 20:41 | 48.71535 | 9.60008 | 7339 ft | 149 kts | 46° |
| 2026-04-30 20:41 | 48.72307 | 9.61045 | 7858 ft | 147 kts | 47° |
| 2026-04-30 20:41 | 48.73079 | 9.62088 | 8233 ft | 150 kts | 47° |
| 2026-04-30 20:41 | 48.73796 | 9.63169 | 8833 ft | 142 kts | 53° |
| 2026-04-30 20:42 | 48.74445 | 9.64331 | 9283 ft | 146 kts | 55° |
| 2026-04-30 20:42 | 48.75098 | 9.65525 | 9757 ft | 148 kts | 55° |
| 2026-04-30 20:42 | 48.76412 | 9.67927 | 10739 ft | 148 kts | 54° |
| 2026-04-30 20:43 | 48.77069 | 9.69134 | 11202 ft | 149 kts | 55° |
| 2026-04-30 20:43 | 48.77725 | 9.70355 | 11659 ft | 150 kts | 54° |
| 2026-04-30 20:43 | 48.78382 | 9.71602 | 12118 ft | 151 kts | 55° |
| 2026-04-30 20:44 | 48.79685 | 9.74092 | 13092 ft | 151 kts | 55° |
| 2026-04-30 20:44 | 48.80339 | 9.75359 | 13537 ft | 153 kts | 54° |
| 2026-04-30 20:44 | 48.81656 | 9.77932 | 14437 ft | 155 kts | 54° |
| 2026-04-30 20:45 | 48.82963 | 9.80542 | 15286 ft | 157 kts | 54° |
| 2026-04-30 20:45 | 48.83615 | 9.81871 | 15705 ft | 158 kts | 54° |
| 2026-04-30 20:45 | 48.84267 | 9.83217 | 16141 ft | 159 kts | 54° |
| 2026-04-30 20:46 | 48.86225 | 9.87323 | 17453 ft | 162 kts | 54° |
| 2026-04-30 20:46 | 48.86875 | 9.88720 | 17889 ft | 162 kts | 54° |
| 2026-04-30 20:47 | 48.88173 | 9.91552 | 18756 ft | 164 kts | 55° |
| 2026-04-30 20:47 | 48.88820 | 9.92984 | 19146 ft | 165 kts | 55° |
| 2026-04-30 20:48 | 48.90123 | 9.95862 | 19930 ft | 167 kts | 55° |
| 2026-04-30 20:48 | 48.90821 | 9.97398 | 20022 ft | 188 kts | 55° |
| 2026-04-30 20:48 | 48.91606 | 9.99133 | 20035 ft | 209 kts | 55° |
| 2026-04-30 20:48 | 48.92462 | 10.01031 | 20034 ft | 226 kts | 55° |
| 2026-04-30 20:49 | 48.93374 | 10.03057 | 20034 ft | 238 kts | 55° |
| 2026-04-30 20:49 | 48.94330 | 10.05180 | 20045 ft | 247 kts | 56° |
| 2026-04-30 20:49 | 48.95316 | 10.07374 | 20045 ft | 254 kts | 55° |
| 2026-04-30 20:50 | 48.97349 | 10.11900 | 20045 ft | 263 kts | 56° |
| 2026-04-30 20:50 | 48.98386 | 10.14209 | 20045 ft | 265 kts | 56° |
| 2026-04-30 20:50 | 48.99432 | 10.16537 | 20050 ft | 267 kts | 55° |
| 2026-04-30 20:50 | 49.00478 | 10.18884 | 20050 ft | 268 kts | 56° |
| 2026-04-30 20:51 | 49.01521 | 10.21235 | 20048 ft | 268 kts | 56° |
| 2026-04-30 20:51 | 49.03614 | 10.25955 | 20048 ft | 269 kts | 56° |
| 2026-04-30 20:51 | 49.04663 | 10.28320 | 20072 ft | 269 kts | 56° |
| 2026-04-30 20:52 | 49.05705 | 10.30676 | 20075 ft | 259 kts | 56° |
| 2026-04-30 20:52 | 49.06690 | 10.32893 | 20077 ft | 252 kts | 56° |
| 2026-04-30 20:52 | 49.08764 | 10.37588 | 18613 ft | 278 kts | 56° |
| 2026-04-30 20:53 | 49.09851 | 10.40133 | 16553 ft | 296 kts | 57° |
| 2026-04-30 20:53 | 49.10984 | 10.42752 | 15133 ft | 292 kts | 57° |
| 2026-04-30 20:53 | 49.12111 | 10.45300 | 13732 ft | 287 kts | 57° |
| 2026-04-30 20:54 | 49.14381 | 10.50242 | 11550 ft | 273 kts | 57° |
| 2026-04-30 20:54 | 49.15496 | 10.52619 | 10080 ft | 276 kts | 57° |
| 2026-04-30 20:54 | 49.16621 | 10.54956 | 8720 ft | 270 kts | 56° |
| 2026-04-30 20:55 | 49.18832 | 10.59454 | 6112 ft | 260 kts | 57° |
| 2026-04-30 20:55 | 49.19926 | 10.61622 | 4822 ft | 255 kts | 57° |
| 2026-04-30 20:55 | 49.20999 | 10.63671 | 4210 ft | 229 kts | 56° |
| 2026-04-30 20:56 | 49.22803 | 10.66762 | 4157 ft | 189 kts | 54° |
| 2026-04-30 20:56 | 49.23717 | 10.68357 | 4160 ft | 207 kts | 56° |
| 2026-04-30 20:56 | 49.25302 | 10.72237 | 4170 ft | 222 kts | 66° |
| 2026-04-30 20:57 | 49.26008 | 10.74347 | 4174 ft | 223 kts | 67° |
| 2026-04-30 20:57 | 49.26718 | 10.76460 | 4177 ft | 223 kts | 67° |
| 2026-04-30 20:57 | 49.27427 | 10.78568 | 4171 ft | 223 kts | 67° |
| 2026-04-30 20:58 | 49.29147 | 10.82794 | 3468 ft | 240 kts | 51° |
| 2026-04-30 20:58 | 49.30349 | 10.84511 | 3464 ft | 234 kts | 47° |
| 2026-04-30 20:58 | 49.31601 | 10.86071 | 3462 ft | 231 kts | 42° |
| 2026-04-30 20:58 | 49.32928 | 10.87455 | 3465 ft | 230 kts | 40° |
| 2026-04-30 20:59 | 49.35568 | 10.90180 | 3469 ft | 227 kts | 42° |
| 2026-04-30 20:59 | 49.36833 | 10.91640 | 3473 ft | 227 kts | 44° |
| 2026-04-30 21:00 | 49.38856 | 10.94090 | 3464 ft | 146 kts | 46° |
| 2026-04-30 21:00 | 49.40311 | 10.95700 | 3466 ft | 118 kts | 46° |
| 2026-04-30 21:01 | 49.41614 | 10.96965 | 3444 ft | 117 kts | 14° |
| 2026-04-30 21:01 | 49.42138 | 10.96645 | 3387 ft | 118 kts | 354° |
| 2026-04-30 21:01 | 49.43625 | 10.96905 | 3457 ft | 123 kts | 13° |
| 2026-04-30 21:02 | 49.44437 | 10.96829 | 3425 ft | 118 kts | 6° |
| 2026-04-30 21:02 | 49.45265 | 10.96821 | 3268 ft | 109 kts | 30° |
| 2026-04-30 21:02 | 49.46091 | 10.97170 | 2736 ft | 140 kts | 26° |
| 2026-04-30 21:02 | 49.47165 | 10.97521 | 2399 ft | 181 kts | 19° |
| 2026-04-30 21:03 | 49.48299 | 10.97829 | 2216 ft | 154 kts | 19° |
| 2026-04-30 21:03 | 49.49330 | 10.97974 | 1913 ft | 150 kts | 12° |
| 2026-04-30 21:03 | 49.50345 | 10.98179 | 1870 ft | 132 kts | 21° |
| 2026-04-30 21:03 | 49.50824 | 10.98872 | 2161 ft | 80 kts | 92° |
| 2026-04-30 21:04 | 49.50745 | 10.99837 | 1855 ft | 99 kts | 101° |
| 2026-04-30 21:04 | 49.50553 | 11.00892 | 1732 ft | 99 kts | 103° |
| 2026-04-30 21:04 | 49.50326 | 11.02982 | 1304 ft | 98 kts | 97° |
| 2026-04-30 21:05 | 49.50232 | 11.03972 | 1153 ft | 90 kts | 98° |
| 2026-04-30 21:05 | 49.50162 | 11.04876 | 1084 ft | 86 kts | 90° |
| 2026-04-30 21:05 | 49.50070 | 11.05812 | 1095 ft | 100 kts | 99° |
| 2026-04-30 21:05 | 49.49963 | 11.06841 | 1019 ft | 89 kts | 99° |
| 2026-04-30 21:06 | 49.49877 | 11.07736 | 1028 ft | 96 kts | 99° |
| 2026-04-30 21:06 | 49.49789 | 11.08808 | 1442 ft | 100 kts | 95° |
| 2026-04-30 21:06 | 49.49686 | 11.09949 | 1768 ft | 115 kts | 97° |
| 2026-04-30 21:06 | 49.50062 | 11.10903 | 2279 ft | 124 kts | 37° |
| 2026-04-30 21:07 | 49.51071 | 11.11083 | 2240 ft | 167 kts | 9° |
| 2026-04-30 21:07 | 49.52199 | 11.10148 | 2096 ft | 212 kts | 312° |
| 2026-04-30 21:07 | 49.52661 | 11.07910 | 2073 ft | 225 kts | 281° |
| 2026-04-30 21:07 | 49.52802 | 11.05521 | 2170 ft | 226 kts | 269° |
| 2026-04-30 21:08 | 49.52805 | 11.03356 | 2376 ft | 179 kts | 273° |
| 2026-04-30 21:08 | 49.52801 | 11.01617 | 2369 ft | 154 kts | 268° |
| 2026-04-30 21:08 | 49.52802 | 10.99938 | 2361 ft | 162 kts | 271° |
| 2026-04-30 21:08 | 49.52794 | 10.98237 | 2441 ft | 156 kts | 245° |
| 2026-04-30 21:09 | 49.52029 | 10.97375 | 2418 ft | 136 kts | 182° |
| 2026-04-30 21:09 | 49.51082 | 10.97278 | 2320 ft | 126 kts | 150° |
| 2026-04-30 21:09 | 49.50671 | 10.98207 | 2151 ft | 106 kts | 95° |
| 2026-04-30 21:09 | 49.50663 | 10.99278 | 1965 ft | 100 kts | 93° |
| 2026-04-30 21:10 | 49.50614 | 11.00433 | 1747 ft | 120 kts | 97° |
| 2026-04-30 21:10 | 49.50481 | 11.01748 | 1598 ft | 123 kts | 99° |
| 2026-04-30 21:10 | 49.50350 | 11.02956 | 1400 ft | 109 kts | 101° |
| 2026-04-30 21:10 | 49.50221 | 11.04202 | 1286 ft | 129 kts | 98° |
| 2026-04-30 21:11 | 49.50104 | 11.05468 | 1134 ft | 112 kts | 99° |
| 2026-04-30 21:11 | 49.50000 | 11.06487 | 1019 ft | 79 kts | 99° |
| 2026-04-30 21:11 | 49.49934 | 11.07217 | 1021 ft | 74 kts | 97° |
| 2026-04-30 21:11 | 49.49828 | 11.08150 | 1276 ft | 95 kts | 98° |
| 2026-04-30 21:12 | 49.49708 | 11.09257 | 1545 ft | 114 kts | 101° |
| 2026-04-30 21:12 | 49.49577 | 11.10474 | 1944 ft | 123 kts | 98° |
| 2026-04-30 21:12 | 49.49768 | 11.11831 | 2168 ft | 150 kts | 59° |
| 2026-04-30 21:12 | 49.50476 | 11.13059 | 2557 ft | 159 kts | 53° |
| 2026-04-30 21:13 | 49.51330 | 11.14301 | 2637 ft | 181 kts | 51° |
| 2026-04-30 21:13 | 49.52308 | 11.15714 | 2547 ft | 203 kts | 49° |
| 2026-04-30 21:13 | 49.53355 | 11.17173 | 2778 ft | 204 kts | 48° |
| 2026-04-30 21:13 | 49.54474 | 11.18586 | 2730 ft | 212 kts | 44° |
| 2026-04-30 21:14 | 49.55743 | 11.19889 | 2482 ft | 227 kts | 37° |
| 2026-04-30 21:14 | 49.57128 | 11.21035 | 2509 ft | 226 kts | 35° |
| 2026-04-30 21:14 | 49.58481 | 11.22201 | 2645 ft | 220 kts | 36° |
| 2026-04-30 21:14 | 49.59790 | 11.23368 | 2787 ft | 216 kts | 38° |
| 2026-04-30 21:15 | 49.61106 | 11.24563 | 2705 ft | 222 kts | 38° |
| 2026-04-30 21:15 | 49.62449 | 11.25672 | 2929 ft | 211 kts | 31° |
| 2026-04-30 21:15 | 49.63726 | 11.26606 | 3402 ft | 196 kts | 35° |
| 2026-04-30 21:15 | 49.64962 | 11.27574 | 3488 ft | 206 kts | 34° |
| 2026-04-30 21:16 | 49.66288 | 11.28571 | 3422 ft | 218 kts | 32° |
| 2026-04-30 21:16 | 49.67684 | 11.29593 | 3326 ft | 225 kts | 32° |
| 2026-04-30 21:16 | 49.69109 | 11.30633 | 3229 ft | 229 kts | 32° |
| 2026-04-30 21:16 | 49.70510 | 11.31787 | 3153 ft | 224 kts | 41° |
| 2026-04-30 21:17 | 49.71725 | 11.33263 | 3262 ft | 217 kts | 47° |
| 2026-04-30 21:17 | 49.72789 | 11.34718 | 3895 ft | 192 kts | 46° |
| 2026-04-30 21:17 | 49.73726 | 11.35979 | 4719 ft | 166 kts | 47° |
| 2026-04-30 21:17 | 49.74545 | 11.37035 | 5589 ft | 141 kts | 46° |
| 2026-04-30 21:18 | 49.75245 | 11.37915 | 6359 ft | 123 kts | 46° |
| 2026-04-30 21:18 | 49.75909 | 11.38780 | 6834 ft | 126 kts | 47° |
| 2026-04-30 21:18 | 49.76551 | 11.39702 | 7282 ft | 126 kts | 49° |
| 2026-04-30 21:18 | 49.77186 | 11.40636 | 7753 ft | 126 kts | 49° |
| 2026-04-30 21:19 | 49.77818 | 11.41580 | 8227 ft | 126 kts | 49° |
| 2026-04-30 21:19 | 49.78447 | 11.42532 | 8689 ft | 126 kts | 49° |
| 2026-04-30 21:19 | 49.79074 | 11.43496 | 9158 ft | 128 kts | 49° |
| 2026-04-30 21:19 | 49.79699 | 11.44472 | 9655 ft | 128 kts | 49° |
| 2026-04-30 21:20 | 49.80325 | 11.45455 | 10217 ft | 129 kts | 49° |
| 2026-04-30 21:20 | 49.80951 | 11.46450 | 10743 ft | 129 kts | 49° |
| 2026-04-30 21:20 | 49.81573 | 11.47452 | 11281 ft | 129 kts | 49° |
| 2026-04-30 21:20 | 49.82189 | 11.48466 | 11795 ft | 129 kts | 49° |
| 2026-04-30 21:21 | 49.82801 | 11.49485 | 12318 ft | 129 kts | 49° |
| 2026-04-30 21:21 | 49.83412 | 11.50511 | 12848 ft | 130 kts | 49° |
| 2026-04-30 21:21 | 49.84628 | 11.52591 | 13928 ft | 131 kts | 49° |
| 2026-04-30 21:22 | 49.85233 | 11.53646 | 14443 ft | 131 kts | 49° |
| 2026-04-30 21:22 | 49.87050 | 11.56816 | 15946 ft | 131 kts | 49° |
| 2026-04-30 21:23 | 49.87657 | 11.57866 | 16455 ft | 131 kts | 49° |
| 2026-04-30 21:23 | 49.88302 | 11.58863 | 16966 ft | 132 kts | 42° |
| 2026-04-30 21:23 | 49.89772 | 11.60578 | 18010 ft | 133 kts | 40° |
| 2026-04-30 21:24 | 49.90515 | 11.61428 | 18531 ft | 133 kts | 40° |
| 2026-04-30 21:24 | 49.91262 | 11.62275 | 19015 ft | 133 kts | 40° |
| 2026-04-30 21:24 | 49.92009 | 11.63125 | 19466 ft | 133 kts | 40° |
| 2026-04-30 21:24 | 49.92760 | 11.63981 | 19924 ft | 134 kts | 40° |
| 2026-04-30 21:25 | 49.94264 | 11.65709 | 20822 ft | 135 kts | 40° |
| 2026-04-30 21:25 | 49.95021 | 11.66580 | 21289 ft | 136 kts | 40° |
| 2026-04-30 21:25 | 49.95781 | 11.67456 | 21759 ft | 136 kts | 40° |
| 2026-04-30 21:26 | 49.97310 | 11.69226 | 22739 ft | 137 kts | 40° |
| 2026-04-30 21:26 | 49.98075 | 11.70117 | 23229 ft | 138 kts | 40° |
| 2026-04-30 21:27 | 49.99616 | 11.71927 | 24185 ft | 139 kts | 40° |
| 2026-04-30 21:27 | 50.00392 | 11.72839 | 24605 ft | 140 kts | 40° |
| 2026-04-30 21:27 | 50.01170 | 11.73760 | 25018 ft | 141 kts | 40° |
| 2026-04-30 21:28 | 50.02953 | 11.75924 | 25130 ft | 186 kts | 41° |
| 2026-04-30 21:28 | 50.04018 | 11.77245 | 25131 ft | 205 kts | 41° |
| 2026-04-30 21:28 | 50.06406 | 11.80242 | 25125 ft | 233 kts | 41° |
| 2026-04-30 21:29 | 50.07690 | 11.81867 | 25127 ft | 243 kts | 41° |
| 2026-04-30 21:29 | 50.11781 | 11.87067 | 25123 ft | 260 kts | 41° |
| 2026-04-30 21:30 | 50.14613 | 11.90675 | 25123 ft | 265 kts | 41° |
| 2026-04-30 21:31 | 50.18943 | 11.96218 | 25119 ft | 270 kts | 41° |
| 2026-04-30 21:31 | 50.21856 | 11.99954 | 25116 ft | 271 kts | 41° |
| 2026-04-30 21:32 | 50.24871 | 12.03517 | 25116 ft | 273 kts | 36° |
| 2026-04-30 21:32 | 50.26460 | 12.05138 | 25112 ft | 272 kts | 35° |
| 2026-04-30 21:32 | 50.28049 | 12.06739 | 25108 ft | 272 kts | 35° |
| 2026-04-30 21:32 | 50.29637 | 12.08333 | 25107 ft | 271 kts | 35° |
| 2026-04-30 21:33 | 50.31225 | 12.09925 | 25107 ft | 271 kts | 35° |
| 2026-04-30 21:33 | 50.34394 | 12.13103 | 25107 ft | 270 kts | 35° |
| 2026-04-30 21:33 | 50.35955 | 12.14672 | 25109 ft | 270 kts | 35° |
| 2026-04-30 21:34 | 50.37505 | 12.16332 | 25115 ft | 269 kts | 39° |
| 2026-04-30 21:34 | 50.40270 | 12.20275 | 25138 ft | 269 kts | 49° |
| 2026-04-30 21:34 | 50.41435 | 12.22568 | 25139 ft | 269 kts | 52° |
| 2026-04-30 21:35 | 50.42554 | 12.24918 | 25139 ft | 269 kts | 53° |
| 2026-04-30 21:35 | 50.43661 | 12.27280 | 25137 ft | 269 kts | 53° |
| 2026-04-30 21:35 | 50.44767 | 12.29649 | 25138 ft | 269 kts | 53° |
| 2026-04-30 21:35 | 50.45871 | 12.32020 | 25140 ft | 269 kts | 53° |
| 2026-04-30 21:36 | 50.46975 | 12.34391 | 25140 ft | 269 kts | 53° |
| 2026-04-30 21:36 | 50.48128 | 12.36706 | 25133 ft | 269 kts | 50° |
| 2026-04-30 21:37 | 50.51780 | 12.43419 | 25125 ft | 269 kts | 49° |
| 2026-04-30 21:37 | 50.53003 | 12.45648 | 25124 ft | 269 kts | 49° |
| 2026-04-30 21:37 | 50.54223 | 12.47881 | 25123 ft | 269 kts | 50° |
| 2026-04-30 21:37 | 50.55426 | 12.50142 | 25123 ft | 269 kts | 50° |
| 2026-04-30 21:38 | 50.56622 | 12.52409 | 25123 ft | 270 kts | 50° |
| 2026-04-30 21:38 | 50.57817 | 12.54681 | 25123 ft | 270 kts | 50° |
| 2026-04-30 21:38 | 50.59012 | 12.56953 | 25128 ft | 269 kts | 50° |
| 2026-04-30 21:38 | 50.60207 | 12.59225 | 25128 ft | 269 kts | 50° |
| 2026-04-30 21:39 | 50.61400 | 12.61499 | 25127 ft | 269 kts | 50° |
| 2026-04-30 21:39 | 50.62593 | 12.63773 | 25127 ft | 269 kts | 50° |
| 2026-04-30 21:39 | 50.63787 | 12.66051 | 25106 ft | 270 kts | 50° |
| 2026-04-30 21:39 | 50.65019 | 12.68415 | 24367 ft | 285 kts | 51° |
| 2026-04-30 21:40 | 50.66265 | 12.70842 | 22256 ft | 287 kts | 51° |
| 2026-04-30 21:40 | 50.67530 | 12.73309 | 20070 ft | 293 kts | 51° |
| 2026-04-30 21:40 | 50.68846 | 12.75808 | 18841 ft | 298 kts | 51° |
| 2026-04-30 21:40 | 50.70172 | 12.78274 | 18533 ft | 291 kts | 51° |
| 2026-04-30 21:41 | 50.71477 | 12.80696 | 18112 ft | 289 kts | 51° |
| 2026-04-30 21:41 | 50.72780 | 12.83119 | 17664 ft | 289 kts | 51° |
| 2026-04-30 21:41 | 50.74081 | 12.85545 | 17251 ft | 289 kts | 51° |
| 2026-04-30 21:41 | 50.75373 | 12.87970 | 16851 ft | 288 kts | 51° |
| 2026-04-30 21:42 | 50.76660 | 12.90399 | 16461 ft | 288 kts | 51° |
| 2026-04-30 21:42 | 50.77944 | 12.92831 | 16090 ft | 288 kts | 51° |
| 2026-04-30 21:42 | 50.79222 | 12.95259 | 15681 ft | 288 kts | 51° |
| 2026-04-30 21:42 | 50.80491 | 12.97691 | 15168 ft | 287 kts | 51° |
| 2026-04-30 21:43 | 50.81758 | 13.00129 | 14651 ft | 287 kts | 51° |
| 2026-04-30 21:43 | 50.82593 | 13.01744 | 14324 ft | 287 kts | 51° |
| 2026-04-30 21:43 | 50.84274 | 13.05010 | 13630 ft | 285 kts | 51° |
| 2026-04-30 21:43 | 50.85520 | 13.07431 | 13163 ft | 282 kts | 51° |
| 2026-04-30 21:44 | 50.86756 | 13.09824 | 12690 ft | 280 kts | 51° |
| 2026-04-30 21:44 | 50.87988 | 13.12200 | 12227 ft | 278 kts | 51° |
| 2026-04-30 21:44 | 50.89163 | 13.14477 | 10970 ft | 264 kts | 52° |
| 2026-04-30 21:44 | 50.90341 | 13.16737 | 9427 ft | 265 kts | 51° |
| 2026-04-30 21:45 | 50.91520 | 13.18949 | 7956 ft | 261 kts | 51° |
| 2026-04-30 21:45 | 50.92700 | 13.21125 | 6512 ft | 260 kts | 51° |
| 2026-04-30 21:45 | 50.93486 | 13.22549 | 5572 ft | 258 kts | 51° |
| 2026-04-30 21:45 | 50.94658 | 13.24660 | 4203 ft | 251 kts | 51° |
| 2026-04-30 21:46 | 50.95766 | 13.26647 | 3534 ft | 221 kts | 50° |
| 2026-04-30 21:46 | 50.96686 | 13.28240 | 3512 ft | 173 kts | 49° |
| 2026-04-30 21:46 | 50.97417 | 13.29476 | 3506 ft | 139 kts | 50° |